sensor_id;sensor_type;location;lat;lon;timestamp;pressure;altitude;pressure_sealevel;temperature;humidity
24892;BME280;12954;50.688;10.908;2022-08-19T00:01:56;95245.66;;;18.75;61.15
24892;BME280;12954;50.688;10.908;2022-08-19T00:04:28;95242.59;;;18.77;61.02
24892;BME280;12954;50.688;10.908;2022-08-19T00:06:57;95239.06;;;18.76;61.22
24892;BME280;12954;50.688;10.908;2022-08-19T00:09:27;95216.69;;;18.62;61.20
24892;BME280;12954;50.688;10.908;2022-08-19T00:11:57;95216.69;;;18.62;61.18
24892;BME280;12954;50.688;10.908;2022-08-19T00:14:28;95225.38;;;18.76;61.32
24892;BME280;12954;50.688;10.908;2022-08-19T00:16:59;95234.72;;;18.75;61.43
24892;BME280;12954;50.688;10.908;2022-08-19T00:19:28;95229.72;;;18.77;61.06
24892;BME280;12954;50.688;10.908;2022-08-19T00:21:57;95220.03;;;18.80;61.21
24892;BME280;12954;50.688;10.908;2022-08-19T00:24:26;95216.75;;;18.74;61.08
24892;BME280;12954;50.688;10.908;2022-08-19T00:26:56;95207.63;;;18.70;61.06
24892;BME280;12954;50.688;10.908;2022-08-19T00:29:46;95215.00;;;18.70;61.31
24892;BME280;12954;50.688;10.908;2022-08-19T00:32:18;95159.41;;;18.42;61.00
24892;BME280;12954;50.688;10.908;2022-08-19T00:34:47;95195.75;;;18.66;61.38
24892;BME280;12954;50.688;10.908;2022-08-19T00:37:15;95195.31;;;18.64;61.47
24892;BME280;12954;50.688;10.908;2022-08-19T00:39:44;95174.78;;;18.46;61.28
24892;BME280;12954;50.688;10.908;2022-08-19T00:42:15;95199.84;;;18.60;61.41
24892;BME280;12954;50.688;10.908;2022-08-19T00:44:43;95204.84;;;18.58;61.44
24892;BME280;12954;50.688;10.908;2022-08-19T00:47:14;95203.72;;;18.59;61.39
24892;BME280;12954;50.688;10.908;2022-08-19T00:49:47;95202.91;;;18.59;61.25
24892;BME280;12954;50.688;10.908;2022-08-19T00:52:21;95052.50;;;17.50;61.28
24892;BME280;12954;50.688;10.908;2022-08-19T00:54:51;95175.69;;;18.38;61.53
24892;BME280;12954;50.688;10.908;2022-08-19T00:57:25;95200.53;;;18.57;61.28
24892;BME280;12954;50.688;10.908;2022-08-19T00:59:56;95025.91;;;17.47;61.69
24892;BME280;12954;50.688;10.908;2022-08-19T01:02:31;95193.00;;;18.54;61.42
24892;BME280;12954;50.688;10.908;2022-08-19T01:05:02;95196.88;;;18.53;61.50
24892;BME280;12954;50.688;10.908;2022-08-19T01:07:33;95117.94;;;18.03;61.61
24892;BME280;12954;50.688;10.908;2022-08-19T01:10:06;95176.16;;;18.52;61.32
24892;BME280;12954;50.688;10.908;2022-08-19T01:12:36;95036.53;;;17.60;61.67
24892;BME280;12954;50.688;10.908;2022-08-19T01:15:07;95189.94;;;18.56;61.67
24892;BME280;12954;50.688;10.908;2022-08-19T01:17:39;95190.72;;;18.56;61.41
24892;BME280;12954;50.688;10.908;2022-08-19T01:20:12;95120.13;;;18.10;61.63
24892;BME280;12954;50.688;10.908;2022-08-19T01:22:44;95164.75;;;18.38;61.65
24892;BME280;12954;50.688;10.908;2022-08-19T01:25:15;95177.50;;;18.46;61.97
24892;BME280;12954;50.688;10.908;2022-08-19T01:27:48;95140.81;;;18.23;61.72
24892;BME280;12954;50.688;10.908;2022-08-19T01:30:21;95160.78;;;18.36;61.88
24892;BME280;12954;50.688;10.908;2022-08-19T01:32:51;95175.25;;;18.48;61.76
24892;BME280;12954;50.688;10.908;2022-08-19T01:35:21;95176.81;;;18.49;61.82
24892;BME280;12954;50.688;10.908;2022-08-19T01:37:54;95175.69;;;18.38;61.71
24892;BME280;12954;50.688;10.908;2022-08-19T01:40:25;95199.94;;;18.52;61.89
24892;BME280;12954;50.688;10.908;2022-08-19T01:42:54;95194.13;;;18.53;61.96
24892;BME280;12954;50.688;10.908;2022-08-19T01:45:25;95194.25;;;18.45;61.86
24892;BME280;12954;50.688;10.908;2022-08-19T01:47:55;95186.59;;;18.38;61.68
24892;BME280;12954;50.688;10.908;2022-08-19T01:50:28;95180.47;;;18.41;61.72
24892;BME280;12954;50.688;10.908;2022-08-19T01:52:59;95179.09;;;18.47;61.82
24892;BME280;12954;50.688;10.908;2022-08-19T01:55:35;95172.50;;;18.48;61.84
24892;BME280;12954;50.688;10.908;2022-08-19T01:58:08;95168.59;;;18.37;61.91
24892;BME280;12954;50.688;10.908;2022-08-19T02:00:39;95157.13;;;18.44;61.75
24892;BME280;12954;50.688;10.908;2022-08-19T02:03:07;95157.94;;;18.44;61.58
24892;BME280;12954;50.688;10.908;2022-08-19T02:05:38;95149.28;;;18.30;61.79
24892;BME280;12954;50.688;10.908;2022-08-19T02:08:10;95146.75;;;18.37;61.83
24892;BME280;12954;50.688;10.908;2022-08-19T02:10:40;95156.31;;;18.43;61.99
24892;BME280;12954;50.688;10.908;2022-08-19T02:13:10;95144.72;;;18.46;61.68
24892;BME280;12954;50.688;10.908;2022-08-19T02:15:38;95146.31;;;18.47;61.75
24892;BME280;12954;50.688;10.908;2022-08-19T02:18:07;95123.88;;;18.29;61.75
24892;BME280;12954;50.688;10.908;2022-08-19T02:20:39;95163.41;;;18.44;61.80
24892;BME280;12954;50.688;10.908;2022-08-19T02:23:11;95157.13;;;18.44;62.08
24892;BME280;12954;50.688;10.908;2022-08-19T02:25:42;95147.38;;;18.43;61.82
24892;BME280;12954;50.688;10.908;2022-08-19T02:28:11;95152.81;;;18.43;61.92
24892;BME280;12954;50.688;10.908;2022-08-19T02:30:45;95137.22;;;18.43;61.70
24892;BME280;12954;50.688;10.908;2022-08-19T02:33:15;95146.09;;;18.40;61.71
24892;BME280;12954;50.688;10.908;2022-08-19T02:35:44;95118.41;;;18.17;61.84
24892;BME280;12954;50.688;10.908;2022-08-19T02:38:14;95064.50;;;17.82;62.18
24892;BME280;12954;50.688;10.908;2022-08-19T02:40:56;95107.56;;;17.97;62.03
24892;BME280;12954;50.688;10.908;2022-08-19T02:43:26;95112.81;;;18.02;62.07
24892;BME280;12954;50.688;10.908;2022-08-19T02:45:59;95148.81;;;18.28;62.13
24892;BME280;12954;50.688;10.908;2022-08-19T02:48:28;95099.78;;;17.87;62.24
24892;BME280;12954;50.688;10.908;2022-08-19T02:50:56;95161.44;;;18.32;62.07
24892;BME280;12954;50.688;10.908;2022-08-19T02:53:28;95149.59;;;18.28;62.10
24892;BME280;12954;50.688;10.908;2022-08-19T02:55:56;95158.94;;;18.27;62.08
24892;BME280;12954;50.688;10.908;2022-08-19T02:58:25;95154.28;;;18.28;62.14
24892;BME280;12954;50.688;10.908;2022-08-19T03:00:56;95160.41;;;18.25;62.11
24892;BME280;12954;50.688;10.908;2022-08-19T03:03:25;95160.75;;;18.23;62.33
24892;BME280;12954;50.688;10.908;2022-08-19T03:06:06;95141.28;;;18.13;62.11
24892;BME280;12954;50.688;10.908;2022-08-19T03:08:37;95173.59;;;18.23;62.28
24892;BME280;12954;50.688;10.908;2022-08-19T03:11:06;95179.72;;;18.20;62.58
24892;BME280;12954;50.688;10.908;2022-08-19T03:13:35;95185.88;;;18.17;62.54
24892;BME280;12954;50.688;10.908;2022-08-19T03:16:04;95190.19;;;18.18;62.40
24892;BME280;12954;50.688;10.908;2022-08-19T03:18:33;95182.81;;;18.18;62.59
24892;BME280;12954;50.688;10.908;2022-08-19T03:21:02;95195.22;;;18.16;62.83
24892;BME280;12954;50.688;10.908;2022-08-19T03:23:31;95193.72;;;18.18;62.97
24892;BME280;12954;50.688;10.908;2022-08-19T03:26:04;95203.84;;;18.18;62.81
24892;BME280;12954;50.688;10.908;2022-08-19T03:28:43;95198.41;;;18.18;63.08
24892;BME280;12954;50.688;10.908;2022-08-19T03:31:21;95202.25;;;18.17;63.13
24892;BME280;12954;50.688;10.908;2022-08-19T03:34:11;95000.72;;;16.76;63.06
24892;BME280;12954;50.688;10.908;2022-08-19T03:36:40;95221.34;;;18.17;62.89
24892;BME280;12954;50.688;10.908;2022-08-19T03:39:10;95220.22;;;18.18;63.09
24892;BME280;12954;50.688;10.908;2022-08-19T03:41:42;95219.56;;;18.21;63.20
24892;BME280;12954;50.688;10.908;2022-08-19T03:44:15;95222.75;;;18.23;63.04
24892;BME280;12954;50.688;10.908;2022-08-19T03:46:46;95223.91;;;18.22;63.05
24892;BME280;12954;50.688;10.908;2022-08-19T03:49:15;95224.56;;;18.19;63.05
24892;BME280;12954;50.688;10.908;2022-08-19T03:51:46;95233.88;;;18.18;63.16
24892;BME280;12954;50.688;10.908;2022-08-19T03:54:17;95225.69;;;18.18;63.31
24892;BME280;12954;50.688;10.908;2022-08-19T03:56:49;95232.75;;;18.19;63.16
24892;BME280;12954;50.688;10.908;2022-08-19T03:59:21;95175.56;;;17.69;63.19
24892;BME280;12954;50.688;10.908;2022-08-19T04:01:54;95239.81;;;18.20;63.37
24892;BME280;12954;50.688;10.908;2022-08-19T04:04:24;95234.81;;;18.22;63.43
24892;BME280;12954;50.688;10.908;2022-08-19T04:06:55;95228.22;;;18.23;63.19
24892;BME280;12954;50.688;10.908;2022-08-19T04:09:24;95224.66;;;18.22;63.51
24892;BME280;12954;50.688;10.908;2022-08-19T04:11:57;95223.41;;;18.20;63.31
24892;BME280;12954;50.688;10.908;2022-08-19T04:14:27;95219.78;;;18.16;63.37
24892;BME280;12954;50.688;10.908;2022-08-19T04:16:57;95034.69;;;16.99;63.42
24892;BME280;12954;50.688;10.908;2022-08-19T04:19:28;95212.69;;;18.03;63.40
24892;BME280;12954;50.688;10.908;2022-08-19T04:21:58;95221.59;;;18.12;63.78
24892;BME280;12954;50.688;10.908;2022-08-19T04:24:27;95219.97;;;18.11;63.47
24892;BME280;12954;50.688;10.908;2022-08-19T04:26:58;95217.72;;;18.13;63.61
24892;BME280;12954;50.688;10.908;2022-08-19T04:29:27;95217.72;;;18.13;63.72
24892;BME280;12954;50.688;10.908;2022-08-19T04:31:57;95219.53;;;18.09;63.83
24892;BME280;12954;50.688;10.908;2022-08-19T04:34:34;95200.59;;;17.92;64.01
24892;BME280;12954;50.688;10.908;2022-08-19T04:37:23;94925.38;;;16.18;63.98
24892;BME280;12954;50.688;10.908;2022-08-19T04:40:00;95218.81;;;18.00;64.06
24892;BME280;12954;50.688;10.908;2022-08-19T04:42:47;95224.25;;;18.00;64.16
24892;BME280;12954;50.688;10.908;2022-08-19T04:45:16;95224.72;;;18.02;64.12
24892;BME280;12954;50.688;10.908;2022-08-19T04:47:48;95195.00;;;17.88;64.20
24892;BME280;12954;50.688;10.908;2022-08-19T04:50:40;95151.88;;;17.61;64.26
24892;BME280;12954;50.688;10.908;2022-08-19T04:53:10;95219.88;;;18.07;64.24
24892;BME280;12954;50.688;10.908;2022-08-19T04:55:40;95222.25;;;18.09;64.48
24892;BME280;12954;50.688;10.908;2022-08-19T04:58:10;95211.06;;;18.02;64.18
24892;BME280;12954;50.688;10.908;2022-08-19T05:00:40;95220.66;;;18.08;64.32
24892;BME280;12954;50.688;10.908;2022-08-19T05:03:08;95190.38;;;17.80;64.56
24892;BME280;12954;50.688;10.908;2022-08-19T05:05:39;95213.59;;;18.07;64.70
24892;BME280;12954;50.688;10.908;2022-08-19T05:08:11;95212.81;;;18.06;64.66
24892;BME280;12954;50.688;10.908;2022-08-19T05:10:41;95215.09;;;18.04;64.56
24892;BME280;12954;50.688;10.908;2022-08-19T05:13:11;95215.41;;;18.03;65.00
24892;BME280;12954;50.688;10.908;2022-08-19T05:15:39;95206.03;;;17.92;65.05
24892;BME280;12954;50.688;10.908;2022-08-19T05:18:08;95192.72;;;17.69;64.89
24892;BME280;12954;50.688;10.908;2022-08-19T05:20:56;95238.97;;;18.07;64.95
24892;BME280;12954;50.688;10.908;2022-08-19T05:23:42;95223.59;;;18.03;64.90
24892;BME280;12954;50.688;10.908;2022-08-19T05:26:11;95229.31;;;18.10;65.04
24892;BME280;12954;50.688;10.908;2022-08-19T05:28:42;95207.09;;;17.99;65.00
24892;BME280;12954;50.688;10.908;2022-08-19T05:31:11;95215.09;;;18.04;65.24
24892;BME280;12954;50.688;10.908;2022-08-19T05:33:40;95209.50;;;18.01;65.38
24892;BME280;12954;50.688;10.908;2022-08-19T05:36:08;95213.56;;;17.95;65.58
24892;BME280;12954;50.688;10.908;2022-08-19T05:38:37;95228.59;;;18.01;65.78
24892;BME280;12954;50.688;10.908;2022-08-19T05:41:07;95238.38;;;18.02;65.77
24892;BME280;12954;50.688;10.908;2022-08-19T05:43:36;95217.31;;;17.82;66.06
24892;BME280;12954;50.688;10.908;2022-08-19T05:46:07;95205.97;;;17.79;66.12
24892;BME280;12954;50.688;10.908;2022-08-19T05:48:37;95241.72;;;18.07;66.02
24892;BME280;12954;50.688;10.908;2022-08-19T05:51:06;95255.81;;;18.09;65.96
24892;BME280;12954;50.688;10.908;2022-08-19T05:53:36;95256.47;;;18.06;66.09
24892;BME280;12954;50.688;10.908;2022-08-19T05:56:05;95258.88;;;18.08;66.07
24892;BME280;12954;50.688;10.908;2022-08-19T05:58:34;95261.28;;;18.09;66.09
24892;BME280;12954;50.688;10.908;2022-08-19T06:01:04;95257.75;;;18.09;66.33
24892;BME280;12954;50.688;10.908;2022-08-19T06:03:39;95260.47;;;18.09;66.30
24892;BME280;12954;50.688;10.908;2022-08-19T06:06:08;95270.13;;;18.06;66.74
24892;BME280;12954;50.688;10.908;2022-08-19T06:08:38;95230.81;;;17.66;66.65
24892;BME280;12954;50.688;10.908;2022-08-19T06:11:16;95267.03;;;17.96;66.48
24892;BME280;12954;50.688;10.908;2022-08-19T06:13:47;95286.50;;;18.06;66.75
24892;BME280;12954;50.688;10.908;2022-08-19T06:16:25;95278.19;;;18.03;66.68
24892;BME280;12954;50.688;10.908;2022-08-19T06:18:56;95280.47;;;18.01;66.83
24892;BME280;12954;50.688;10.908;2022-08-19T06:21:28;95280.19;;;17.94;66.67
24892;BME280;12954;50.688;10.908;2022-08-19T06:23:58;95298.41;;;18.02;66.61
24892;BME280;12954;50.688;10.908;2022-08-19T06:26:27;95309.34;;;18.02;66.84
24892;BME280;12954;50.688;10.908;2022-08-19T06:28:55;95312.28;;;17.97;66.56
24892;BME280;12954;50.688;10.908;2022-08-19T06:31:26;95311.63;;;18.00;66.50
24892;BME280;12954;50.688;10.908;2022-08-19T06:33:56;95314.78;;;18.02;66.68
24892;BME280;12954;50.688;10.908;2022-08-19T06:36:26;95316.25;;;17.99;66.52
24892;BME280;12954;50.688;10.908;2022-08-19T06:38:59;95312.03;;;17.90;66.25
24892;BME280;12954;50.688;10.908;2022-08-19T06:41:28;95259.78;;;17.50;66.18
24892;BME280;12954;50.688;10.908;2022-08-19T06:43:57;95333.44;;;18.00;66.02
24892;BME280;12954;50.688;10.908;2022-08-19T06:46:26;95343.56;;;17.99;66.06
24892;BME280;12954;50.688;10.908;2022-08-19T06:48:56;95309.84;;;17.74;66.21
24892;BME280;12954;50.688;10.908;2022-08-19T06:51:25;95338.09;;;17.99;66.15
24892;BME280;12954;50.688;10.908;2022-08-19T06:53:57;95335.06;;;18.01;66.06
24892;BME280;12954;50.688;10.908;2022-08-19T06:56:28;95345.16;;;18.00;66.00
24892;BME280;12954;50.688;10.908;2022-08-19T06:59:01;95346.63;;;17.98;66.25
24892;BME280;12954;50.688;10.908;2022-08-19T07:01:31;95300.25;;;17.68;66.37
24892;BME280;12954;50.688;10.908;2022-08-19T07:04:04;95348.22;;;17.99;66.04
24892;BME280;12954;50.688;10.908;2022-08-19T07:06:32;95344.22;;;17.96;66.06
24892;BME280;12954;50.688;10.908;2022-08-19T07:09:12;95352.09;;;17.98;66.52
24892;BME280;12954;50.688;10.908;2022-08-19T07:11:45;95349.81;;;18.00;66.44
24892;BME280;12954;50.688;10.908;2022-08-19T07:14:16;95345.03;;;17.97;66.26
24892;BME280;12954;50.688;10.908;2022-08-19T07:16:47;95345.69;;;17.94;66.41
24892;BME280;12954;50.688;10.908;2022-08-19T07:19:19;95325.34;;;17.83;66.39
24892;BME280;12954;50.688;10.908;2022-08-19T07:21:49;95314.16;;;17.75;66.35
24892;BME280;12954;50.688;10.908;2022-08-19T07:24:21;95334.50;;;17.87;66.37
24892;BME280;12954;50.688;10.908;2022-08-19T07:26:52;95337.41;;;17.82;66.44
24892;BME280;12954;50.688;10.908;2022-08-19T07:29:21;95351.69;;;17.78;66.87
24892;BME280;12954;50.688;10.908;2022-08-19T07:31:54;95344.97;;;17.76;66.62
24892;BME280;12954;50.688;10.908;2022-08-19T07:34:29;95356.03;;;17.79;66.91
24892;BME280;12954;50.688;10.908;2022-08-19T07:37:01;95330.47;;;17.63;66.83
24892;BME280;12954;50.688;10.908;2022-08-19T07:39:32;95350.59;;;17.79;66.82
24892;BME280;12954;50.688;10.908;2022-08-19T07:42:05;95359.88;;;17.78;66.63
24892;BME280;12954;50.688;10.908;2022-08-19T07:44:35;95188.91;;;16.62;66.62
24892;BME280;12954;50.688;10.908;2022-08-19T07:47:09;95343.97;;;17.60;66.44
24892;BME280;12954;50.688;10.908;2022-08-19T07:49:58;95346.84;;;17.63;66.29
24892;BME280;12954;50.688;10.908;2022-08-19T07:52:27;95366.22;;;17.70;66.39
24892;BME280;12954;50.688;10.908;2022-08-19T07:54:56;95374.38;;;17.70;66.56
24892;BME280;12954;50.688;10.908;2022-08-19T07:57:27;95372.78;;;17.69;66.28
24892;BME280;12954;50.688;10.908;2022-08-19T07:59:56;95335.75;;;17.39;66.45
24892;BME280;12954;50.688;10.908;2022-08-19T08:02:25;95388.50;;;17.72;66.48
24892;BME280;12954;50.688;10.908;2022-08-19T08:04:53;95391.88;;;17.69;66.42
24892;BME280;12954;50.688;10.908;2022-08-19T08:07:55;95350.78;;;17.45;66.73
24892;BME280;12954;50.688;10.908;2022-08-19T08:10:41;95369.94;;;17.66;66.65
24892;BME280;12954;50.688;10.908;2022-08-19T08:13:18;95384.00;;;17.76;66.62
24892;BME280;12954;50.688;10.908;2022-08-19T08:15:47;95389.13;;;17.78;66.72
24892;BME280;12954;50.688;10.908;2022-08-19T08:18:20;95370.41;;;17.68;66.88
24892;BME280;12954;50.688;10.908;2022-08-19T08:20:54;95391.16;;;17.81;67.08
24892;BME280;12954;50.688;10.908;2022-08-19T08:23:26;95392.94;;;17.86;66.82
24892;BME280;12954;50.688;10.908;2022-08-19T08:25:57;95390.19;;;17.86;66.95
24892;BME280;12954;50.688;10.908;2022-08-19T08:28:27;95381.06;;;17.82;67.07
24892;BME280;12954;50.688;10.908;2022-08-19T08:30:57;95391.50;;;17.88;67.02
24892;BME280;12954;50.688;10.908;2022-08-19T08:33:28;95395.47;;;17.91;67.08
24892;BME280;12954;50.688;10.908;2022-08-19T08:36:01;95398.88;;;17.88;67.03
24892;BME280;12954;50.688;10.908;2022-08-19T08:38:32;95405.75;;;17.85;67.11
24892;BME280;12954;50.688;10.908;2022-08-19T08:41:11;95411.06;;;17.82;67.55
24892;BME280;12954;50.688;10.908;2022-08-19T08:43:48;95411.28;;;17.76;67.35
24892;BME280;12954;50.688;10.908;2022-08-19T08:46:23;95411.63;;;17.75;67.36
24892;BME280;12954;50.688;10.908;2022-08-19T08:49:02;95419.66;;;17.71;67.71
24892;BME280;12954;50.688;10.908;2022-08-19T08:51:40;95424.31;;;17.71;67.61
24892;BME280;12954;50.688;10.908;2022-08-19T08:54:18;95436.69;;;17.68;67.67
24892;BME280;12954;50.688;10.908;2022-08-19T08:56:49;95433.34;;;17.63;67.82
24892;BME280;12954;50.688;10.908;2022-08-19T08:59:23;95435.91;;;17.59;67.77
24892;BME280;12954;50.688;10.908;2022-08-19T09:01:53;95435.47;;;17.57;68.10
24892;BME280;12954;50.688;10.908;2022-08-19T09:04:21;95430.66;;;17.54;68.00
24892;BME280;12954;50.688;10.908;2022-08-19T09:06:54;95427.94;;;17.54;67.97
24892;BME280;12954;50.688;10.908;2022-08-19T09:09:29;95434.50;;;17.53;68.18
24892;BME280;12954;50.688;10.908;2022-08-19T09:12:05;95427.59;;;17.56;67.88
24892;BME280;12954;50.688;10.908;2022-08-19T09:14:45;95415.88;;;17.55;68.15
24892;BME280;12954;50.688;10.908;2022-08-19T09:17:20;95409.03;;;17.41;68.28
24892;BME280;12954;50.688;10.908;2022-08-19T09:19:57;95407.88;;;17.50;68.47
24892;BME280;12954;50.688;10.908;2022-08-19T09:22:27;95414.94;;;17.51;68.59
24892;BME280;12954;50.688;10.908;2022-08-19T09:24:58;95403.03;;;17.56;68.22
24892;BME280;12954;50.688;10.908;2022-08-19T09:27:27;95415.06;;;17.55;67.87
24892;BME280;12954;50.688;10.908;2022-08-19T09:30:12;95404.03;;;17.51;67.68
24892;BME280;12954;50.688;10.908;2022-08-19T09:32:41;95370.31;;;17.18;67.30
24892;BME280;12954;50.688;10.908;2022-08-19T09:35:13;95386.13;;;17.33;67.17
24892;BME280;12954;50.688;10.908;2022-08-19T09:37:42;95384.34;;;17.37;67.14
24892;BME280;12954;50.688;10.908;2022-08-19T09:40:13;95411.06;;;17.52;66.59
24892;BME280;12954;50.688;10.908;2022-08-19T09:42:43;95409.50;;;17.51;66.42
24892;BME280;12954;50.688;10.908;2022-08-19T09:45:19;95412.69;;;17.53;66.26
24892;BME280;12954;50.688;10.908;2022-08-19T09:47:50;95409.28;;;17.56;66.44
24892;BME280;12954;50.688;10.908;2022-08-19T09:50:22;95402.84;;;17.61;66.02
24892;BME280;12954;50.688;10.908;2022-08-19T09:52:51;95381.25;;;17.47;66.05
24892;BME280;12954;50.688;10.908;2022-08-19T09:55:25;95398.19;;;17.61;65.81
24892;BME280;12954;50.688;10.908;2022-08-19T09:57:59;95395.94;;;17.63;65.62
24892;BME280;12954;50.688;10.908;2022-08-19T10:00:28;95396.06;;;17.67;65.75
24892;BME280;12954;50.688;10.908;2022-08-19T10:02:58;95388.75;;;17.59;66.18
24892;BME280;12954;50.688;10.908;2022-08-19T10:05:27;95392.38;;;17.71;66.35
24892;BME280;12954;50.688;10.908;2022-08-19T10:08:16;95401.16;;;17.77;66.16
24892;BME280;12954;50.688;10.908;2022-08-19T10:10:48;95398.25;;;17.82;65.97
24892;BME280;12954;50.688;10.908;2022-08-19T10:13:19;95402.41;;;17.88;66.01
24892;BME280;12954;50.688;10.908;2022-08-19T10:15:53;95404.28;;;17.96;66.27
24892;BME280;12954;50.688;10.908;2022-08-19T10:18:24;95401.50;;;18.05;65.92
24892;BME280;12954;50.688;10.908;2022-08-19T10:21:03;95397.91;;;18.13;65.83
24892;BME280;12954;50.688;10.908;2022-08-19T10:23:35;95397.50;;;18.23;65.95
24892;BME280;12954;50.688;10.908;2022-08-19T10:26:06;95409.63;;;18.34;65.70
24892;BME280;12954;50.688;10.908;2022-08-19T10:28:36;95403.91;;;18.27;65.66
24892;BME280;12954;50.688;10.908;2022-08-19T10:31:10;95404.22;;;18.46;65.51
24892;BME280;12954;50.688;10.908;2022-08-19T10:33:40;95403.25;;;18.51;65.53
24892;BME280;12954;50.688;10.908;2022-08-19T10:36:22;95366.88;;;18.38;65.27
24892;BME280;12954;50.688;10.908;2022-08-19T10:38:53;95388.31;;;18.69;65.04
24892;BME280;12954;50.688;10.908;2022-08-19T10:41:28;95393.72;;;18.77;65.20
24892;BME280;12954;50.688;10.908;2022-08-19T10:43:58;95393.50;;;18.82;65.41
24892;BME280;12954;50.688;10.908;2022-08-19T10:46:30;95396.81;;;18.88;65.47
24892;BME280;12954;50.688;10.908;2022-08-19T10:49:00;95410.25;;;18.93;65.43
24892;BME280;12954;50.688;10.908;2022-08-19T10:51:30;95420.34;;;19.01;65.37
24892;BME280;12954;50.688;10.908;2022-08-19T10:54:16;95411.19;;;18.97;65.33
24892;BME280;12954;50.688;10.908;2022-08-19T10:57:01;95415.47;;;19.19;64.74
24892;BME280;12954;50.688;10.908;2022-08-19T10:59:29;95346.09;;;18.78;64.54
24892;BME280;12954;50.688;10.908;2022-08-19T11:02:03;95415.28;;;19.36;63.70
24892;BME280;12954;50.688;10.908;2022-08-19T11:04:32;95418.75;;;19.45;63.16
24892;BME280;12954;50.688;10.908;2022-08-19T11:07:02;95390.66;;;19.36;62.15
24892;BME280;12954;50.688;10.908;2022-08-19T11:09:37;95408.72;;;19.61;61.13
24892;BME280;12954;50.688;10.908;2022-08-19T11:12:09;95412.00;;;19.67;59.69
24892;BME280;12954;50.688;10.908;2022-08-19T11:14:39;95421.38;;;19.66;59.29
24892;BME280;12954;50.688;10.908;2022-08-19T11:17:08;95400.72;;;19.56;58.95
24892;BME280;12954;50.688;10.908;2022-08-19T11:19:38;95419.91;;;19.68;57.97
24892;BME280;12954;50.688;10.908;2022-08-19T11:22:07;95417.38;;;19.63;57.39
24892;BME280;12954;50.688;10.908;2022-08-19T11:24:42;95425.81;;;19.58;57.67
24892;BME280;12954;50.688;10.908;2022-08-19T11:27:12;95419.22;;;19.59;57.57
24892;BME280;12954;50.688;10.908;2022-08-19T11:29:41;95421.72;;;19.64;57.49
24892;BME280;12954;50.688;10.908;2022-08-19T11:32:10;95425.25;;;19.65;57.84
24892;BME280;12954;50.688;10.908;2022-08-19T11:34:40;95429.25;;;19.67;58.22
24892;BME280;12954;50.688;10.908;2022-08-19T11:37:09;95427.63;;;19.66;57.74
24892;BME280;12954;50.688;10.908;2022-08-19T11:39:38;95420.59;;;19.65;57.10
24892;BME280;12954;50.688;10.908;2022-08-19T11:42:07;95429.25;;;19.67;56.77
24892;BME280;12954;50.688;10.908;2022-08-19T11:44:51;95433.47;;;19.65;57.01
24892;BME280;12954;50.688;10.908;2022-08-19T11:47:19;95430.72;;;19.65;56.87
24892;BME280;12954;50.688;10.908;2022-08-19T11:49:48;95419.09;;;19.68;56.83
24892;BME280;12954;50.688;10.908;2022-08-19T11:52:18;95411.81;;;19.72;56.00
24892;BME280;12954;50.688;10.908;2022-08-19T11:54:46;95412.38;;;19.77;55.77
24892;BME280;12954;50.688;10.908;2022-08-19T11:57:15;95408.72;;;19.85;55.58
24892;BME280;12954;50.688;10.908;2022-08-19T11:59:48;95397.19;;;19.92;54.89
24892;BME280;12954;50.688;10.908;2022-08-19T12:02:19;95395.03;;;19.97;53.92
24892;BME280;12954;50.688;10.908;2022-08-19T12:04:48;95399.56;;;19.93;53.76
24892;BME280;12954;50.688;10.908;2022-08-19T12:07:17;95388.63;;;20.06;53.80
24892;BME280;12954;50.688;10.908;2022-08-19T12:09:46;95378.09;;;20.08;53.50
24892;BME280;12954;50.688;10.908;2022-08-19T12:12:15;95390.31;;;20.22;53.08
24892;BME280;12954;50.688;10.908;2022-08-19T12:14:43;95396.59;;;20.23;52.50
24892;BME280;12954;50.688;10.908;2022-08-19T12:17:13;95391.91;;;20.23;52.05
24892;BME280;12954;50.688;10.908;2022-08-19T12:19:43;95396.28;;;20.24;51.59
24892;BME280;12954;50.688;10.908;2022-08-19T12:22:12;95393.84;;;20.23;51.35
24892;BME280;12954;50.688;10.908;2022-08-19T12:24:40;95392.59;;;20.20;50.82
24892;BME280;12954;50.688;10.908;2022-08-19T12:27:09;95400.38;;;20.18;51.25
24892;BME280;12954;50.688;10.908;2022-08-19T12:29:38;95384.28;;;20.17;52.00
24892;BME280;12954;50.688;10.908;2022-08-19T12:32:07;95377.31;;;20.19;51.72
24892;BME280;12954;50.688;10.908;2022-08-19T12:34:38;95366.72;;;20.18;51.38
24892;BME280;12954;50.688;10.908;2022-08-19T12:37:09;95362.91;;;20.22;51.57
24892;BME280;12954;50.688;10.908;2022-08-19T12:39:39;95312.88;;;19.97;51.04
24892;BME280;12954;50.688;10.908;2022-08-19T12:42:10;95297.13;;;19.94;50.51
24892;BME280;12954;50.688;10.908;2022-08-19T12:44:40;95353.09;;;20.33;49.89
24892;BME280;12954;50.688;10.908;2022-08-19T12:47:11;95283.88;;;19.96;49.51
24892;BME280;12954;50.688;10.908;2022-08-19T12:49:41;95302.22;;;20.08;49.16
24892;BME280;12954;50.688;10.908;2022-08-19T12:52:24;95364.00;;;20.45;48.60
24892;BME280;12954;50.688;10.908;2022-08-19T12:54:55;95362.25;;;20.53;48.22
24892;BME280;12954;50.688;10.908;2022-08-19T12:57:25;95376.63;;;20.62;48.63
24892;BME280;12954;50.688;10.908;2022-08-19T13:00:00;95372.72;;;20.63;48.29
24892;BME280;12954;50.688;10.908;2022-08-19T13:02:31;95327.47;;;20.41;47.85
24892;BME280;12954;50.688;10.908;2022-08-19T13:05:07;95378.63;;;20.77;47.54
24892;BME280;12954;50.688;10.908;2022-08-19T13:07:40;95375.97;;;20.81;47.64
24892;BME280;12954;50.688;10.908;2022-08-19T13:10:12;95360.28;;;20.66;47.48
24892;BME280;12954;50.688;10.908;2022-08-19T13:12:42;95391.41;;;20.85;47.78
24892;BME280;12954;50.688;10.908;2022-08-19T13:15:11;95396.19;;;20.88;47.37